Caliente, Nevada Weather observations

Data are for observation ending at time listed.
 Day   Time    Ave.   Ave.  Ave.  Vector   Max.   Stn.    Total    Solar   Ave.  
  of    of     Air    Rel.  Wind   Wind    Wind   Baro.  Precip.   Rad.    Soil  
Year   Day     Temp.  Hum.  Speed  Dir.    Gust   Pres.                    Temp. 
2014   (PST)    F      %     mph   deg.    mph     mb.     in.     W/m2     F   
------------------------------------------------------------------------------
 352   13:30   45.8    53    1.3   202      3.9   869.4    0.00      73    43.4
 352   13:40   46.4    52    2.2   285      4.7   869.4    0.00     103    43.4
 352   13:50   46.5    52    2.0   239      5.4   869.4    0.00      98    43.5
 352   14:00   46.2    53    1.2   248      3.3   869.4    0.00      85    43.5
 352   14:10   46.1    54    3.3   270      7.7   869.4    0.00      82    43.6
 352   14:20   46.2    55    3.1   276      5.7   869.5    0.00      43    43.7
 352   14:30   45.7    56    1.2   250      4.2   869.6    0.00      24    43.7
 352   14:40   45.6    57    0.2   237      1.1   869.6    0.00      23    43.7
 352   14:50   45.5    57    0.2   248      1.5   869.7    0.00      25    43.7
 352   15:00   45.5    56    0.7   229      2.2   869.7    0.00      24    43.7
 352   15:10   45.9    51    1.0   228      3.8   869.7    0.00      21    43.6
 352   15:20   46.2    50    1.5   230      3.4   869.7    0.00      19    43.5
 352   15:30   45.9    52    1.3   247      2.5   869.9    0.00      18    43.5
 352   15:40   45.5    52    1.4   248      2.8   869.9    0.00      20    43.4
 352   15:50   45.2    54    1.4   255      2.9   869.9    0.00      16    43.4
 352   16:00   44.6    57    1.1   249      2.9   870.0    0.00      12    43.3
 352   16:10   44.1    60    2.7   259      5.5   870.1    0.00       8    43.3
 352   16:20   43.7    62    2.9   251      6.3   870.3    0.00       6    43.2
 352   16:30   43.3    62    3.1   248      7.3   870.4    0.00       3    43.1
 352   16:40   42.7    65    1.4   250      2.6   870.4    0.00       1    43.1
 352   16:50   42.1    66    2.2   250      3.7   870.4    0.00       0    43.0
 352   17:00   41.3    69    2.3   262      3.7   870.6    0.00       1    42.9
 352   17:10   40.7    70    1.4   260      2.8   870.6    0.00       0    42.8
 352   17:20   40.0    71    0.4   214      1.8   870.8    0.00       0    42.7
 352   17:30   39.7    72    0.9   230      3.4   870.9    0.00       0    42.6
 352   17:40   39.0    74    0.4   216      3.1   870.9    0.00       0    42.5
 352   17:50   38.3    75    0.1   224      1.5   870.9    0.00       0    42.4
 352   18:00   37.6    76    0.1   168      0.7   871.1    0.00       0    42.3
 352   18:10   37.1    77    0.2   171      1.2   871.2    0.00       0    42.1
 352   18:20   36.6    78    0.0     0      0.0   871.3    0.00       0    42.0
 352   18:30   36.0    78    0.2   149      1.0   871.4    0.00       0    41.9
 352   18:40   35.6    78    0.1   225      0.9   871.5    0.00       0    41.8
 352   18:50   35.0    79    0.3   236      1.8   871.6    0.00       0    41.7
 352   19:00   34.7    80    0.2   232      1.4   871.6    0.00       0    41.5
 352   19:10   34.4    80    0.5   183      1.8   871.6    0.00       0    41.4
 352   19:20   34.3    80    0.2   179      1.0   871.7    0.00       0    41.3
 352   19:30   34.2    80    0.4   295      1.2   871.8    0.00       0    41.1
 352   19:40   33.7    81    0.4   253      2.6   871.9    0.00       0    41.0
 352   19:50   33.4    81    0.0   245      0.2   871.9    0.00       0    40.9
 352   20:00   33.0    82    0.0     0      0.0   871.9    0.00       0    40.8
 352   20:10   32.8    83    0.3   283      1.4   871.9    0.00       0    40.7
 352   20:20   32.1    84    0.0     0      0.0   872.0    0.00       0    40.6
 352   20:30   31.9    85    0.2   277      1.2   872.0    0.00       0    40.4
 352   20:40   31.9    85    0.0     0      0.0   872.1    0.00       0    40.3
 352   20:50   31.4    86    0.3   146      1.4   872.2    0.00       0    40.2
 352   21:00   31.2    86    0.8   352      2.2   872.3    0.00       0    40.1
 352   21:10   30.8    87    0.7   119      1.5   872.4    0.00       0    40.0
 352   21:20   30.8    88    0.6   132      1.5   872.4    0.00       0    39.9
 352   21:30   30.6    88    0.3   146      1.0   872.5    0.00       0    39.8
 352   21:40   30.3    88    0.4    63      2.0   872.5    0.00       0    39.7
 352   21:50   30.5    88    0.1   130      1.2   872.6    0.00       0    39.6
 352   22:00   30.2    88    0.1   167      0.9   872.6    0.00       0    39.5
 352   22:10   29.8    88    0.3   232      1.2   872.6    0.00       0    39.4
 352   22:20   29.3    88    0.0     0      0.0   872.6    0.00       0    39.3
 352   22:30   29.5    89    0.0     0      0.0   872.5    0.00       0    39.2
 352   22:40   29.3    89    0.3   160      1.2   872.6    0.00       0    39.1
 352   22:50   29.1    89    0.2   160      1.2   872.6    0.00       0    39.0
 352   23:00   29.4    90    0.5   165      1.4   872.7    0.00       0    38.8
 352   23:10   28.9    89    0.4   334      1.9   872.7    0.00       0    38.7
 352   23:20   28.7    90    1.3     8      2.3   872.6    0.00       0    38.6
 352   23:30   28.7    90    0.6   121      1.5   872.5    0.00       0    38.5
 352   23:40   28.7    90    0.3   119      1.0   872.5    0.00       0    38.4
 352   23:50   28.9    90    0.2   146      0.9   872.6    0.00       0    38.3
 353    0:00   28.4    90    0.3   101      1.1   872.6    0.00       0    38.3
 353    0:10   28.2    90    1.1   138      2.2   872.6    0.00       0    38.2
 353    0:20   27.8    90    0.9    34      1.9   872.6    0.00       0    38.0
 353    0:30   28.0    91    1.6    50      7.9   872.5    0.00       0    38.0
 353    0:40   28.1    90    0.7    61      2.2   872.4    0.00       0    37.9
 353    0:50   27.8    91    0.8   102      2.0   872.4    0.00       0    37.8
 353    1:00   27.6    91    0.4   113      1.0   872.5    0.00       0    37.7
 353    1:10   27.5    91    0.0   114      0.6   872.6    0.00       0    37.6
 353    1:20   27.1    91    0.1   132      1.2   872.9    0.00       0    37.5
 353    1:30   26.9    91    0.4   130      1.3   873.0    0.00       0    37.4
 353    1:40   26.9    91    1.5    20      2.2   873.1    0.00       0    37.3
 353    1:50   26.8    91    0.6    86      2.1   873.2    0.00       0    37.2
 353    2:00   26.6    91    0.7    90      2.1   873.0    0.00       0    37.1
 353    2:10   26.8    91    1.2    10      2.5   873.0    0.00       0    37.1
 353    2:20   26.8    91    0.7   168      2.0   873.1    0.00       0    37.0
 353    2:30   26.6    91    0.2   136      1.2   873.2    0.00       0    36.9
 353    2:40   26.4    91    0.9   119      1.9   873.1    0.00       0    36.8
 353    2:50   26.4    91    0.5    94      2.1   873.0    0.00       0    36.7
 353    3:00   26.7    91    0.4    61      1.7   873.0    0.00       0    36.7
 353    3:10   26.4    91    0.8   129      1.6   872.9    0.00       0    36.6
 353    3:20   26.3    91    0.4   197      1.4   872.8    0.00       0    36.6
 353    3:30   26.3    91    0.0     0      0.0   872.9    0.00       0    36.5
 353    3:40   25.8    91    0.7   136      1.3   872.9    0.00       0    36.5
 353    3:50   25.9    91    0.4   109      1.0   872.7    0.00       0    36.4
 353    4:00   26.1    91    1.1    55      4.3   872.9    0.00       0    36.3
 353    4:10   26.0    91    0.2   106      1.2   873.0    0.00       0    36.3
 353    4:20   26.0    91    0.0     0      0.0   873.0    0.00       0    36.2
 353    4:30   25.6    91    0.0   108      0.7   872.9    0.00       0    36.2
 353    4:40   25.6    91    0.1   108      0.8   873.0    0.00       0    36.1
 353    4:50   25.7    91    0.0   110      0.7   873.0    0.00       0    36.1
 353    5:00   25.7    91    0.0    48      0.8   873.0    0.00       0    36.0
 353    5:10   25.6    91    0.1   168      0.8   873.0    0.00       0    36.0
 353    5:20   25.6    91    0.8   142      1.2   873.1    0.00       0    35.9
 353    5:30   25.7    91    0.3   117      0.9   873.1    0.00       0    35.9
 353    5:40   25.7    91    0.2   118      0.9   873.1    0.00       0    35.8
 353    5:50   25.5    91    0.3   120      0.9   873.1    0.00       0    35.8
 353    6:00   25.7    91    0.1   351      0.9   873.1    0.00       0    35.7
 353    6:10   25.7    91    0.7   119      1.8   873.2    0.00       0    35.7
 353    6:20   25.7    91    1.0   123      1.8   873.2    0.00       0    35.7
 353    6:30   25.8    91    1.0    36      2.6   873.3    0.00       0    35.6
 353    6:40   25.8    90    1.0   120      2.6   873.4    0.00       0    35.6
 353    6:50   26.0    90    0.5   137      1.9   873.4    0.00       3    35.6
 353    7:00   26.2    90    0.3    28      1.4   873.5    0.00       4    35.5
 353    7:10   26.2    90    0.9    59      2.4   873.5    0.00       8    35.5
 353    7:20   26.0    90    0.2   118      1.4   873.5    0.00      14    35.5
 353    7:30   26.2    90    0.8    28      1.8   873.6    0.00      21    35.4
 353    7:40   26.3    90    0.9   128      1.8   873.6    0.00      32    35.4
 353    7:50   26.5    90    0.5   139      1.8   873.7    0.00      42    35.4
 353    8:00   26.9    89    0.2   136      1.2   873.7    0.00      54    35.3
 353    8:10   27.5    88    0.3    94      1.3   873.6    0.00      67    35.3
 353    8:20   28.3    87    0.9    46      2.6   873.8    0.00      79    35.3
 353    8:30   28.5    85    0.8   136      2.1   873.9    0.00      72    35.3
 353    8:40   28.0    86    2.0   118      4.2   873.9    0.00      77    35.3
 353    8:50   28.3    86    1.1   115      3.1   873.6    0.00     122    35.3
 353    9:00   29.5    85    1.5   356      4.5   873.5    0.00     195    35.3
 353    9:10   29.8    83    2.6    14      4.7   873.7    0.00     177    35.2
 353    9:20   30.9    81    0.8    75      3.0   873.8    0.00     195    35.2
 353    9:30   31.6    79    0.7   181      1.8   873.7    0.00     284    35.2
 353    9:40   32.3    78    0.9   277      2.1   873.7    0.00     353    35.2
 353    9:50   33.4    75    0.7   263      3.7   873.8    0.00     304    35.2
 353   10:00   33.6    76    1.3   169      3.2   873.7    0.00     218    35.2
 353   10:10   34.9    73    0.6   103      1.8   873.6    0.00     306    35.2
 353   10:20   35.8    70    0.6   344      1.6   873.5    0.00     342    35.3
 353   10:30   36.9    69    0.5    52      2.2   873.4    0.00     353    35.3
 353   10:40   37.7    67    0.7   129      2.1   873.2    0.00     364    35.3
 353   10:50   38.9    65    0.4    53      2.2   872.9    0.00     363    35.3
 353   11:00   39.4    65    1.0   107      4.1   872.7    0.00     358    35.4
 353   11:10   39.8    64    1.4    51      3.1   872.5    0.00     374    35.4
 353   11:20   40.3    63    1.4    71      3.7   872.4    0.00     377    35.5
 353   11:30   40.5    64    1.0   295      2.6   872.3    0.00     371    35.6
 353   11:40   41.1    64    1.4   196      3.9   872.2    0.00     378    35.6
 353   11:50   42.1    63    1.7   153      3.9   871.9    0.00     382    35.7
 353   12:00   42.5    62    0.9   126      2.3   871.7    0.00     386    35.8
 353   12:10   43.0    61    1.1   180      3.4   871.4    0.00     386    35.9
 353   12:20   44.0    59    1.0   337      3.8   871.2    0.00     383    36.0
 353   12:30   43.5    60    2.1   287      4.6   871.2    0.00     377    36.1
 353   12:40   44.3    58    1.2   282      4.3   871.1    0.00     369    36.3
 353   12:50   44.6    58    0.8   127      3.1   871.0    0.00     362    36.4
 353   13:00   44.8    57    1.7   204      3.4   870.9    0.00     354    36.5
 353   13:10   44.9    57    1.5   270      3.9   870.7    0.00     187    36.6
 353   13:20   45.4    57    0.9    76      3.1   870.6    0.00      47    36.7

Return to Caliente, Nevada graphs page.


Western Regional Climate Center,wrcc@dri.edu